sensor_id;sensor_type;location;lat;lon;timestamp;temperature;humidity
27200;DHT22;14714;48.106;11.546;2024-02-23T00:02:14;8.00;99.90
27200;DHT22;14714;48.106;11.546;2024-02-23T00:04:41;7.90;99.90
27200;DHT22;14714;48.106;11.546;2024-02-23T00:07:08;7.90;99.90
27200;DHT22;14714;48.106;11.546;2024-02-23T00:09:35;7.90;99.90
27200;DHT22;14714;48.106;11.546;2024-02-23T00:12:03;7.90;99.90
27200;DHT22;14714;48.106;11.546;2024-02-23T00:14:30;7.90;99.90
27200;DHT22;14714;48.106;11.546;2024-02-23T00:16:58;7.80;99.90
27200;DHT22;14714;48.106;11.546;2024-02-23T00:19:25;7.80;99.90
27200;DHT22;14714;48.106;11.546;2024-02-23T00:21:52;7.80;99.90
27200;DHT22;14714;48.106;11.546;2024-02-23T00:24:20;7.80;99.90
27200;DHT22;14714;48.106;11.546;2024-02-23T00:26:48;7.80;99.90
27200;DHT22;14714;48.106;11.546;2024-02-23T00:29:15;7.80;99.90
27200;DHT22;14714;48.106;11.546;2024-02-23T00:31:43;7.80;99.90
27200;DHT22;14714;48.106;11.546;2024-02-23T00:34:12;7.70;99.90
27200;DHT22;14714;48.106;11.546;2024-02-23T00:36:40;7.70;99.90
27200;DHT22;14714;48.106;11.546;2024-02-23T00:39:08;7.70;99.90
27200;DHT22;14714;48.106;11.546;2024-02-23T00:41:36;7.70;99.90
27200;DHT22;14714;48.106;11.546;2024-02-23T00:44:03;7.70;99.90
27200;DHT22;14714;48.106;11.546;2024-02-23T00:46:30;7.70;99.90
27200;DHT22;14714;48.106;11.546;2024-02-23T00:48:57;7.70;99.90
27200;DHT22;14714;48.106;11.546;2024-02-23T00:51:24;7.60;99.90
27200;DHT22;14714;48.106;11.546;2024-02-23T00:53:52;7.60;99.90
27200;DHT22;14714;48.106;11.546;2024-02-23T00:56:19;7.60;99.90
27200;DHT22;14714;48.106;11.546;2024-02-23T00:58:53;7.60;99.90
27200;DHT22;14714;48.106;11.546;2024-02-23T01:01:20;7.60;99.90
27200;DHT22;14714;48.106;11.546;2024-02-23T01:03:47;7.60;99.90
27200;DHT22;14714;48.106;11.546;2024-02-23T01:06:13;7.60;99.90
27200;DHT22;14714;48.106;11.546;2024-02-23T01:08:40;7.60;99.90
27200;DHT22;14714;48.106;11.546;2024-02-23T01:11:08;7.60;99.90
27200;DHT22;14714;48.106;11.546;2024-02-23T01:13:35;7.50;99.90
27200;DHT22;14714;48.106;11.546;2024-02-23T01:16:02;7.50;99.90
27200;DHT22;14714;48.106;11.546;2024-02-23T01:18:29;7.50;99.90
27200;DHT22;14714;48.106;11.546;2024-02-23T01:20:56;7.60;99.90
27200;DHT22;14714;48.106;11.546;2024-02-23T01:23:24;7.50;99.90
27200;DHT22;14714;48.106;11.546;2024-02-23T01:25:51;7.50;99.90
27200;DHT22;14714;48.106;11.546;2024-02-23T01:28:18;7.50;99.90
27200;DHT22;14714;48.106;11.546;2024-02-23T01:30:45;7.50;99.90
27200;DHT22;14714;48.106;11.546;2024-02-23T01:33:11;7.60;99.90
27200;DHT22;14714;48.106;11.546;2024-02-23T01:35:38;7.60;99.90
27200;DHT22;14714;48.106;11.546;2024-02-23T01:38:05;7.60;99.90
27200;DHT22;14714;48.106;11.546;2024-02-23T01:40:32;7.50;99.90
27200;DHT22;14714;48.106;11.546;2024-02-23T01:43:05;7.50;99.90
27200;DHT22;14714;48.106;11.546;2024-02-23T01:45:32;7.50;99.90
27200;DHT22;14714;48.106;11.546;2024-02-23T01:48:01;7.50;99.90
27200;DHT22;14714;48.106;11.546;2024-02-23T01:50:30;7.50;99.90
27200;DHT22;14714;48.106;11.546;2024-02-23T01:53:00;7.40;99.90
27200;DHT22;14714;48.106;11.546;2024-02-23T01:55:28;7.40;99.90
27200;DHT22;14714;48.106;11.546;2024-02-23T01:57:58;7.40;99.90
27200;DHT22;14714;48.106;11.546;2024-02-23T02:00:26;7.40;99.90
27200;DHT22;14714;48.106;11.546;2024-02-23T02:02:53;7.30;99.90
27200;DHT22;14714;48.106;11.546;2024-02-23T02:05:20;7.30;99.90
27200;DHT22;14714;48.106;11.546;2024-02-23T02:07:49;7.30;99.90
27200;DHT22;14714;48.106;11.546;2024-02-23T02:10:17;7.30;99.90
27200;DHT22;14714;48.106;11.546;2024-02-23T02:12:44;7.20;99.90
27200;DHT22;14714;48.106;11.546;2024-02-23T02:15:11;7.20;99.90
27200;DHT22;14714;48.106;11.546;2024-02-23T02:17:38;7.20;99.90
27200;DHT22;14714;48.106;11.546;2024-02-23T02:20:05;7.20;99.90
27200;DHT22;14714;48.106;11.546;2024-02-23T02:22:33;7.20;99.90
27200;DHT22;14714;48.106;11.546;2024-02-23T02:25:00;7.20;99.90
27200;DHT22;14714;48.106;11.546;2024-02-23T02:27:27;7.20;99.90
27200;DHT22;14714;48.106;11.546;2024-02-23T02:29:54;7.10;99.90
27200;DHT22;14714;48.106;11.546;2024-02-23T02:32:21;7.10;99.90
27200;DHT22;14714;48.106;11.546;2024-02-23T02:34:48;7.20;99.90
27200;DHT22;14714;48.106;11.546;2024-02-23T02:37:15;7.10;99.90
27200;DHT22;14714;48.106;11.546;2024-02-23T02:39:42;7.10;99.90
27200;DHT22;14714;48.106;11.546;2024-02-23T02:42:09;7.20;99.90
27200;DHT22;14714;48.106;11.546;2024-02-23T02:44:36;7.20;99.90
27200;DHT22;14714;48.106;11.546;2024-02-23T02:47:03;7.20;99.90
27200;DHT22;14714;48.106;11.546;2024-02-23T02:49:30;7.20;99.90
27200;DHT22;14714;48.106;11.546;2024-02-23T02:51:56;7.20;99.90
27200;DHT22;14714;48.106;11.546;2024-02-23T02:54:23;7.30;99.90
27200;DHT22;14714;48.106;11.546;2024-02-23T02:56:50;7.30;99.90
27200;DHT22;14714;48.106;11.546;2024-02-23T02:59:20;7.20;99.90
27200;DHT22;14714;48.106;11.546;2024-02-23T03:01:50;7.20;99.90
27200;DHT22;14714;48.106;11.546;2024-02-23T03:04:17;7.20;99.90
27200;DHT22;14714;48.106;11.546;2024-02-23T03:06:44;7.20;99.90
27200;DHT22;14714;48.106;11.546;2024-02-23T03:09:10;7.20;99.90
27200;DHT22;14714;48.106;11.546;2024-02-23T03:11:37;7.20;99.90
27200;DHT22;14714;48.106;11.546;2024-02-23T03:14:04;7.20;99.90
27200;DHT22;14714;48.106;11.546;2024-02-23T03:16:31;7.20;99.90
27200;DHT22;14714;48.106;11.546;2024-02-23T03:18:58;7.20;99.90
27200;DHT22;14714;48.106;11.546;2024-02-23T03:21:25;7.10;99.90
27200;DHT22;14714;48.106;11.546;2024-02-23T03:23:52;7.10;99.90
27200;DHT22;14714;48.106;11.546;2024-02-23T03:26:19;7.10;99.90
27200;DHT22;14714;48.106;11.546;2024-02-23T03:28:46;7.10;99.90
27200;DHT22;14714;48.106;11.546;2024-02-23T03:31:13;7.10;99.90
27200;DHT22;14714;48.106;11.546;2024-02-23T03:33:39;7.00;99.90
27200;DHT22;14714;48.106;11.546;2024-02-23T03:36:07;7.10;99.90
27200;DHT22;14714;48.106;11.546;2024-02-23T03:38:34;7.10;99.90
27200;DHT22;14714;48.106;11.546;2024-02-23T03:41:01;7.10;99.90
27200;DHT22;14714;48.106;11.546;2024-02-23T03:43:28;7.00;99.90
27200;DHT22;14714;48.106;11.546;2024-02-23T03:45:59;7.00;99.90
27200;DHT22;14714;48.106;11.546;2024-02-23T03:48:26;7.00;99.90
27200;DHT22;14714;48.106;11.546;2024-02-23T03:50:53;7.00;99.90
27200;DHT22;14714;48.106;11.546;2024-02-23T03:53:21;6.90;99.90
27200;DHT22;14714;48.106;11.546;2024-02-23T03:55:49;6.90;99.90
27200;DHT22;14714;48.106;11.546;2024-02-23T03:58:16;6.90;99.90
27200;DHT22;14714;48.106;11.546;2024-02-23T04:00:43;6.90;99.90
27200;DHT22;14714;48.106;11.546;2024-02-23T04:03:10;6.90;99.90
27200;DHT22;14714;48.106;11.546;2024-02-23T04:05:37;6.90;99.90
27200;DHT22;14714;48.106;11.546;2024-02-23T04:08:04;6.80;99.90
27200;DHT22;14714;48.106;11.546;2024-02-23T04:10:32;6.80;99.90
27200;DHT22;14714;48.106;11.546;2024-02-23T04:13:00;6.70;99.90
27200;DHT22;14714;48.106;11.546;2024-02-23T04:15:27;6.70;99.90
27200;DHT22;14714;48.106;11.546;2024-02-23T04:17:54;6.70;99.90
27200;DHT22;14714;48.106;11.546;2024-02-23T04:20:21;6.60;99.90
27200;DHT22;14714;48.106;11.546;2024-02-23T04:22:47;6.60;99.90
27200;DHT22;14714;48.106;11.546;2024-02-23T04:25:14;6.60;99.90
27200;DHT22;14714;48.106;11.546;2024-02-23T04:27:41;6.60;99.90
27200;DHT22;14714;48.106;11.546;2024-02-23T04:30:10;6.50;99.90
27200;DHT22;14714;48.106;11.546;2024-02-23T04:32:38;6.50;99.90
27200;DHT22;14714;48.106;11.546;2024-02-23T04:35:05;6.50;99.90
27200;DHT22;14714;48.106;11.546;2024-02-23T04:37:32;6.40;99.90
27200;DHT22;14714;48.106;11.546;2024-02-23T04:40:02;6.40;99.90
27200;DHT22;14714;48.106;11.546;2024-02-23T04:42:30;6.40;99.90
27200;DHT22;14714;48.106;11.546;2024-02-23T04:44:57;6.40;99.90
27200;DHT22;14714;48.106;11.546;2024-02-23T04:47:24;6.40;99.90
27200;DHT22;14714;48.106;11.546;2024-02-23T04:49:51;6.40;99.90
27200;DHT22;14714;48.106;11.546;2024-02-23T04:52:18;6.40;99.90
27200;DHT22;14714;48.106;11.546;2024-02-23T04:54:45;6.30;99.90
27200;DHT22;14714;48.106;11.546;2024-02-23T04:57:12;6.30;99.90
27200;DHT22;14714;48.106;11.546;2024-02-23T04:59:39;6.30;99.90
27200;DHT22;14714;48.106;11.546;2024-02-23T05:02:06;6.30;99.90
27200;DHT22;14714;48.106;11.546;2024-02-23T05:04:33;6.30;99.90
27200;DHT22;14714;48.106;11.546;2024-02-23T05:07:00;6.30;99.90
27200;DHT22;14714;48.106;11.546;2024-02-23T05:09:28;6.30;99.90
27200;DHT22;14714;48.106;11.546;2024-02-23T05:11:55;6.30;99.90
27200;DHT22;14714;48.106;11.546;2024-02-23T05:14:22;6.20;99.90
27200;DHT22;14714;48.106;11.546;2024-02-23T05:16:49;6.20;99.90
27200;DHT22;14714;48.106;11.546;2024-02-23T05:19:16;6.20;99.90
27200;DHT22;14714;48.106;11.546;2024-02-23T05:21:43;6.20;99.90
27200;DHT22;14714;48.106;11.546;2024-02-23T05:24:11;6.20;99.90
27200;DHT22;14714;48.106;11.546;2024-02-23T05:26:38;6.20;99.90
27200;DHT22;14714;48.106;11.546;2024-02-23T05:29:05;6.20;99.90
27200;DHT22;14714;48.106;11.546;2024-02-23T05:31:46;6.20;99.90
27200;DHT22;14714;48.106;11.546;2024-02-23T05:34:14;6.10;99.90
27200;DHT22;14714;48.106;11.546;2024-02-23T05:36:42;6.20;99.90
27200;DHT22;14714;48.106;11.546;2024-02-23T05:39:08;6.10;99.90
27200;DHT22;14714;48.106;11.546;2024-02-23T05:41:36;6.10;99.90
27200;DHT22;14714;48.106;11.546;2024-02-23T05:44:04;6.10;99.90
27200;DHT22;14714;48.106;11.546;2024-02-23T05:46:33;6.20;99.90
27200;DHT22;14714;48.106;11.546;2024-02-23T05:49:00;6.20;99.90
27200;DHT22;14714;48.106;11.546;2024-02-23T05:51:30;6.20;99.90
27200;DHT22;14714;48.106;11.546;2024-02-23T05:53:58;6.10;99.90
27200;DHT22;14714;48.106;11.546;2024-02-23T05:56:25;6.20;99.90
27200;DHT22;14714;48.106;11.546;2024-02-23T05:58:52;6.10;99.90
27200;DHT22;14714;48.106;11.546;2024-02-23T06:01:19;6.10;99.90
27200;DHT22;14714;48.106;11.546;2024-02-23T06:03:46;6.10;99.90
27200;DHT22;14714;48.106;11.546;2024-02-23T06:06:13;6.10;99.90
27200;DHT22;14714;48.106;11.546;2024-02-23T06:08:41;6.10;99.90
27200;DHT22;14714;48.106;11.546;2024-02-23T06:11:09;6.10;99.90
27200;DHT22;14714;48.106;11.546;2024-02-23T06:13:37;6.10;99.90
27200;DHT22;14714;48.106;11.546;2024-02-23T06:16:05;6.10;99.90
27200;DHT22;14714;48.106;11.546;2024-02-23T06:18:31;6.10;99.90
27200;DHT22;14714;48.106;11.546;2024-02-23T06:20:58;6.00;99.90
27200;DHT22;14714;48.106;11.546;2024-02-23T06:23:25;6.00;99.90
27200;DHT22;14714;48.106;11.546;2024-02-23T06:25:52;6.00;99.90
27200;DHT22;14714;48.106;11.546;2024-02-23T06:28:19;6.00;99.90
27200;DHT22;14714;48.106;11.546;2024-02-23T06:30:46;6.00;99.90
27200;DHT22;14714;48.106;11.546;2024-02-23T06:33:13;6.00;99.90
27200;DHT22;14714;48.106;11.546;2024-02-23T06:35:40;6.00;99.90
27200;DHT22;14714;48.106;11.546;2024-02-23T06:38:07;6.00;99.90
27200;DHT22;14714;48.106;11.546;2024-02-23T06:40:34;6.00;99.90
27200;DHT22;14714;48.106;11.546;2024-02-23T06:43:17;6.00;99.90
27200;DHT22;14714;48.106;11.546;2024-02-23T06:45:49;6.00;99.90
27200;DHT22;14714;48.106;11.546;2024-02-23T06:48:15;6.00;99.90
27200;DHT22;14714;48.106;11.546;2024-02-23T06:50:42;6.00;99.90
27200;DHT22;14714;48.106;11.546;2024-02-23T06:53:10;6.00;99.90
27200;DHT22;14714;48.106;11.546;2024-02-23T06:55:37;6.00;99.90
27200;DHT22;14714;48.106;11.546;2024-02-23T06:58:04;6.00;99.90
27200;DHT22;14714;48.106;11.546;2024-02-23T07:00:32;6.00;99.90
27200;DHT22;14714;48.106;11.546;2024-02-23T07:02:59;6.00;99.90
27200;DHT22;14714;48.106;11.546;2024-02-23T07:05:27;6.00;99.90
27200;DHT22;14714;48.106;11.546;2024-02-23T07:07:54;6.00;99.90
27200;DHT22;14714;48.106;11.546;2024-02-23T07:10:21;6.10;99.90
27200;DHT22;14714;48.106;11.546;2024-02-23T07:12:49;6.10;99.90
27200;DHT22;14714;48.106;11.546;2024-02-23T07:15:20;6.10;99.90
27200;DHT22;14714;48.106;11.546;2024-02-23T07:17:47;6.00;99.90
27200;DHT22;14714;48.106;11.546;2024-02-23T07:20:14;6.10;99.90
27200;DHT22;14714;48.106;11.546;2024-02-23T07:22:48;6.10;99.90
27200;DHT22;14714;48.106;11.546;2024-02-23T07:25:18;6.10;99.90
27200;DHT22;14714;48.106;11.546;2024-02-23T07:27:47;6.10;99.90
27200;DHT22;14714;48.106;11.546;2024-02-23T07:30:17;6.20;99.90
27200;DHT22;14714;48.106;11.546;2024-02-23T07:32:45;6.20;99.90
27200;DHT22;14714;48.106;11.546;2024-02-23T07:35:18;6.20;99.90
27200;DHT22;14714;48.106;11.546;2024-02-23T07:37:46;6.20;99.90
27200;DHT22;14714;48.106;11.546;2024-02-23T07:40:13;6.20;99.90
27200;DHT22;14714;48.106;11.546;2024-02-23T07:42:43;6.30;99.90
27200;DHT22;14714;48.106;11.546;2024-02-23T07:45:10;6.30;99.90
27200;DHT22;14714;48.106;11.546;2024-02-23T07:47:37;6.30;99.90
27200;DHT22;14714;48.106;11.546;2024-02-23T07:50:05;6.30;99.90
27200;DHT22;14714;48.106;11.546;2024-02-23T07:52:32;6.30;99.90
27200;DHT22;14714;48.106;11.546;2024-02-23T07:54:59;6.30;99.90
27200;DHT22;14714;48.106;11.546;2024-02-23T07:57:29;6.30;99.90
27200;DHT22;14714;48.106;11.546;2024-02-23T07:59:58;6.30;99.90
27200;DHT22;14714;48.106;11.546;2024-02-23T08:02:24;6.40;99.90
27200;DHT22;14714;48.106;11.546;2024-02-23T08:04:52;6.40;99.90
27200;DHT22;14714;48.106;11.546;2024-02-23T08:07:19;6.50;99.90
27200;DHT22;14714;48.106;11.546;2024-02-23T08:09:46;6.50;99.90
27200;DHT22;14714;48.106;11.546;2024-02-23T08:12:14;6.60;99.90
27200;DHT22;14714;48.106;11.546;2024-02-23T08:14:43;6.70;99.90
27200;DHT22;14714;48.106;11.546;2024-02-23T08:17:11;6.80;99.90
27200;DHT22;14714;48.106;11.546;2024-02-23T08:19:38;6.90;99.90
27200;DHT22;14714;48.106;11.546;2024-02-23T08:22:04;7.00;99.90
27200;DHT22;14714;48.106;11.546;2024-02-23T08:24:31;7.10;99.90
27200;DHT22;14714;48.106;11.546;2024-02-23T08:26:58;7.20;99.90
27200;DHT22;14714;48.106;11.546;2024-02-23T08:29:26;7.20;99.90
27200;DHT22;14714;48.106;11.546;2024-02-23T08:31:53;7.20;99.90
27200;DHT22;14714;48.106;11.546;2024-02-23T08:34:20;7.30;99.90
27200;DHT22;14714;48.106;11.546;2024-02-23T08:36:47;7.30;99.90
27200;DHT22;14714;48.106;11.546;2024-02-23T08:39:16;7.30;99.90
27200;DHT22;14714;48.106;11.546;2024-02-23T08:41:42;7.40;99.90
27200;DHT22;14714;48.106;11.546;2024-02-23T08:44:09;7.40;99.90
27200;DHT22;14714;48.106;11.546;2024-02-23T08:46:36;7.50;99.90
27200;DHT22;14714;48.106;11.546;2024-02-23T08:49:06;7.50;99.90
27200;DHT22;14714;48.106;11.546;2024-02-23T08:51:32;7.50;99.90
27200;DHT22;14714;48.106;11.546;2024-02-23T08:53:59;7.50;99.90
27200;DHT22;14714;48.106;11.546;2024-02-23T08:56:31;7.50;99.90
27200;DHT22;14714;48.106;11.546;2024-02-23T08:58:58;7.50;99.90
27200;DHT22;14714;48.106;11.546;2024-02-23T09:01:25;7.50;99.90
27200;DHT22;14714;48.106;11.546;2024-02-23T09:03:52;7.50;99.90
27200;DHT22;14714;48.106;11.546;2024-02-23T09:06:19;7.40;99.90
27200;DHT22;14714;48.106;11.546;2024-02-23T09:08:46;7.40;99.90
27200;DHT22;14714;48.106;11.546;2024-02-23T09:11:13;7.40;99.90
27200;DHT22;14714;48.106;11.546;2024-02-23T09:13:42;7.40;99.90
27200;DHT22;14714;48.106;11.546;2024-02-23T09:16:09;7.30;99.90
27200;DHT22;14714;48.106;11.546;2024-02-23T09:18:36;7.30;99.90
27200;DHT22;14714;48.106;11.546;2024-02-23T09:21:03;7.30;99.90
27200;DHT22;14714;48.106;11.546;2024-02-23T09:23:30;7.20;99.90
27200;DHT22;14714;48.106;11.546;2024-02-23T09:25:57;7.10;99.90
27200;DHT22;14714;48.106;11.546;2024-02-23T09:28:24;7.10;99.90
27200;DHT22;14714;48.106;11.546;2024-02-23T09:30:51;7.10;99.90
27200;DHT22;14714;48.106;11.546;2024-02-23T09:33:21;7.10;99.90
27200;DHT22;14714;48.106;11.546;2024-02-23T09:35:48;7.10;99.90
27200;DHT22;14714;48.106;11.546;2024-02-23T09:38:15;7.00;99.90
27200;DHT22;14714;48.106;11.546;2024-02-23T09:40:42;7.00;99.90
27200;DHT22;14714;48.106;11.546;2024-02-23T09:43:11;7.00;99.90
27200;DHT22;14714;48.106;11.546;2024-02-23T09:45:39;6.90;99.90
27200;DHT22;14714;48.106;11.546;2024-02-23T09:48:07;7.00;99.90
27200;DHT22;14714;48.106;11.546;2024-02-23T09:50:34;7.00;99.90
27200;DHT22;14714;48.106;11.546;2024-02-23T09:53:06;6.90;99.90
27200;DHT22;14714;48.106;11.546;2024-02-23T09:55:35;6.90;99.90
27200;DHT22;14714;48.106;11.546;2024-02-23T09:58:03;7.00;99.90
27200;DHT22;14714;48.106;11.546;2024-02-23T10:00:31;7.00;99.90
27200;DHT22;14714;48.106;11.546;2024-02-23T10:02:58;7.00;99.90
27200;DHT22;14714;48.106;11.546;2024-02-23T10:05:30;7.00;99.90
27200;DHT22;14714;48.106;11.546;2024-02-23T10:08:03;7.00;99.90
27200;DHT22;14714;48.106;11.546;2024-02-23T10:10:33;6.90;99.90
27200;DHT22;14714;48.106;11.546;2024-02-23T10:13:00;6.90;99.90
27200;DHT22;14714;48.106;11.546;2024-02-23T10:15:30;6.90;99.90
27200;DHT22;14714;48.106;11.546;2024-02-23T10:17:58;6.90;99.90
27200;DHT22;14714;48.106;11.546;2024-02-23T10:20:25;6.90;99.90
27200;DHT22;14714;48.106;11.546;2024-02-23T10:22:52;6.90;99.90
27200;DHT22;14714;48.106;11.546;2024-02-23T10:25:21;6.90;99.90
27200;DHT22;14714;48.106;11.546;2024-02-23T10:27:48;6.90;99.90
27200;DHT22;14714;48.106;11.546;2024-02-23T10:30:15;6.90;99.90
27200;DHT22;14714;48.106;11.546;2024-02-23T10:32:42;6.80;99.90
27200;DHT22;14714;48.106;11.546;2024-02-23T10:35:19;6.70;99.90
27200;DHT22;14714;48.106;11.546;2024-02-23T10:37:49;6.70;99.90
27200;DHT22;14714;48.106;11.546;2024-02-23T10:40:20;6.80;99.90
27200;DHT22;14714;48.106;11.546;2024-02-23T10:42:50;6.80;99.90
27200;DHT22;14714;48.106;11.546;2024-02-23T10:45:19;6.80;99.90
27200;DHT22;14714;48.106;11.546;2024-02-23T10:47:47;6.90;99.90
27200;DHT22;14714;48.106;11.546;2024-02-23T10:50:15;6.80;99.90
27200;DHT22;14714;48.106;11.546;2024-02-23T10:52:43;6.80;99.90
27200;DHT22;14714;48.106;11.546;2024-02-23T10:55:10;6.90;99.90
27200;DHT22;14714;48.106;11.546;2024-02-23T10:57:37;6.90;99.90
27200;DHT22;14714;48.106;11.546;2024-02-23T11:00:08;7.00;99.90
27200;DHT22;14714;48.106;11.546;2024-02-23T11:02:46;7.10;99.90
27200;DHT22;14714;48.106;11.546;2024-02-23T11:05:15;7.10;99.90
27200;DHT22;14714;48.106;11.546;2024-02-23T11:07:43;7.00;99.90
27200;DHT22;14714;48.106;11.546;2024-02-23T11:10:16;7.00;99.90
27200;DHT22;14714;48.106;11.546;2024-02-23T11:12:43;7.00;99.90
27200;DHT22;14714;48.106;11.546;2024-02-23T11:15:29;7.00;99.90
27200;DHT22;14714;48.106;11.546;2024-02-23T11:17:56;7.00;99.90
27200;DHT22;14714;48.106;11.546;2024-02-23T11:20:23;7.00;99.90
27200;DHT22;14714;48.106;11.546;2024-02-23T11:22:56;7.00;99.90
27200;DHT22;14714;48.106;11.546;2024-02-23T11:25:28;7.10;99.90
27200;DHT22;14714;48.106;11.546;2024-02-23T11:27:55;7.10;99.90
27200;DHT22;14714;48.106;11.546;2024-02-23T11:30:22;7.10;99.90
27200;DHT22;14714;48.106;11.546;2024-02-23T11:32:52;7.10;99.90
27200;DHT22;14714;48.106;11.546;2024-02-23T11:35:25;7.00;99.90
27200;DHT22;14714;48.106;11.546;2024-02-23T11:37:57;7.00;99.90
27200;DHT22;14714;48.106;11.546;2024-02-23T11:40:31;6.90;99.90
27200;DHT22;14714;48.106;11.546;2024-02-23T11:42:59;6.80;99.90
27200;DHT22;14714;48.106;11.546;2024-02-23T11:45:29;6.80;99.90
27200;DHT22;14714;48.106;11.546;2024-02-23T11:47:58;6.80;99.90
27200;DHT22;14714;48.106;11.546;2024-02-23T11:50:26;6.80;99.90
27200;DHT22;14714;48.106;11.546;2024-02-23T11:52:53;6.80;99.90
27200;DHT22;14714;48.106;11.546;2024-02-23T11:55:21;6.80;99.90
27200;DHT22;14714;48.106;11.546;2024-02-23T11:57:50;6.80;99.90
27200;DHT22;14714;48.106;11.546;2024-02-23T12:00:30;6.70;99.90
27200;DHT22;14714;48.106;11.546;2024-02-23T12:02:57;6.80;99.90
27200;DHT22;14714;48.106;11.546;2024-02-23T12:05:24;6.80;99.90
27200;DHT22;14714;48.106;11.546;2024-02-23T12:07:51;6.90;99.90
27200;DHT22;14714;48.106;11.546;2024-02-23T12:10:20;7.00;99.90
27200;DHT22;14714;48.106;11.546;2024-02-23T12:12:47;7.00;99.90
27200;DHT22;14714;48.106;11.546;2024-02-23T12:15:16;7.00;99.90
27200;DHT22;14714;48.106;11.546;2024-02-23T12:17:52;6.80;99.90
27200;DHT22;14714;48.106;11.546;2024-02-23T12:20:19;6.70;99.90
27200;DHT22;14714;48.106;11.546;2024-02-23T12:22:47;6.60;99.90
27200;DHT22;14714;48.106;11.546;2024-02-23T12:25:14;6.60;99.90
27200;DHT22;14714;48.106;11.546;2024-02-23T12:27:42;6.60;99.90
27200;DHT22;14714;48.106;11.546;2024-02-23T12:30:15;6.60;99.90
27200;DHT22;14714;48.106;11.546;2024-02-23T12:32:44;6.60;99.90
27200;DHT22;14714;48.106;11.546;2024-02-23T12:35:12;6.60;99.90
27200;DHT22;14714;48.106;11.546;2024-02-23T12:37:39;6.60;99.90
27200;DHT22;14714;48.106;11.546;2024-02-23T12:40:11;6.60;99.90
27200;DHT22;14714;48.106;11.546;2024-02-23T12:42:39;6.60;99.90
27200;DHT22;14714;48.106;11.546;2024-02-23T12:45:06;6.60;99.90
27200;DHT22;14714;48.106;11.546;2024-02-23T12:47:33;6.60;99.90
27200;DHT22;14714;48.106;11.546;2024-02-23T12:50:00;6.60;99.90
27200;DHT22;14714;48.106;11.546;2024-02-23T12:52:27;6.50;99.90
27200;DHT22;14714;48.106;11.546;2024-02-23T12:54:54;6.60;99.90
27200;DHT22;14714;48.106;11.546;2024-02-23T12:57:21;6.50;99.90
27200;DHT22;14714;48.106;11.546;2024-02-23T12:59:48;6.50;99.90
27200;DHT22;14714;48.106;11.546;2024-02-23T13:02:15;6.50;99.90
27200;DHT22;14714;48.106;11.546;2024-02-23T13:04:42;6.60;99.90
27200;DHT22;14714;48.106;11.546;2024-02-23T13:07:13;6.60;99.90
27200;DHT22;14714;48.106;11.546;2024-02-23T13:09:39;6.60;99.90
27200;DHT22;14714;48.106;11.546;2024-02-23T13:12:06;6.60;99.90
27200;DHT22;14714;48.106;11.546;2024-02-23T13:14:33;6.70;99.90
27200;DHT22;14714;48.106;11.546;2024-02-23T13:17:00;6.70;99.90
27200;DHT22;14714;48.106;11.546;2024-02-23T13:19:27;6.60;99.90
27200;DHT22;14714;48.106;11.546;2024-02-23T13:21:54;6.60;99.90
27200;DHT22;14714;48.106;11.546;2024-02-23T13:24:21;6.50;99.90
27200;DHT22;14714;48.106;11.546;2024-02-23T13:26:48;6.50;99.90
27200;DHT22;14714;48.106;11.546;2024-02-23T13:29:15;6.50;99.90
27200;DHT22;14714;48.106;11.546;2024-02-23T13:31:42;6.40;99.90
27200;DHT22;14714;48.106;11.546;2024-02-23T13:34:09;6.30;99.90
27200;DHT22;14714;48.106;11.546;2024-02-23T13:36:37;6.20;99.90
27200;DHT22;14714;48.106;11.546;2024-02-23T13:39:05;6.20;99.90
27200;DHT22;14714;48.106;11.546;2024-02-23T13:41:32;6.10;99.90
27200;DHT22;14714;48.106;11.546;2024-02-23T13:43:59;6.10;99.90
27200;DHT22;14714;48.106;11.546;2024-02-23T13:46:26;6.10;99.90
27200;DHT22;14714;48.106;11.546;2024-02-23T13:49:03;6.10;99.90
27200;DHT22;14714;48.106;11.546;2024-02-23T13:51:32;6.00;99.90
27200;DHT22;14714;48.106;11.546;2024-02-23T13:53:59;6.00;99.90
27200;DHT22;14714;48.106;11.546;2024-02-23T13:56:26;6.00;99.90
27200;DHT22;14714;48.106;11.546;2024-02-23T13:58:54;6.10;99.90
27200;DHT22;14714;48.106;11.546;2024-02-23T14:01:21;6.10;99.90
27200;DHT22;14714;48.106;11.546;2024-02-23T14:03:48;6.10;99.90
27200;DHT22;14714;48.106;11.546;2024-02-23T14:06:15;6.10;99.90
27200;DHT22;14714;48.106;11.546;2024-02-23T14:08:42;6.20;99.90
27200;DHT22;14714;48.106;11.546;2024-02-23T14:11:10;6.10;99.90
27200;DHT22;14714;48.106;11.546;2024-02-23T14:13:38;6.10;99.90
27200;DHT22;14714;48.106;11.546;2024-02-23T14:16:05;6.10;99.90
27200;DHT22;14714;48.106;11.546;2024-02-23T14:18:32;6.10;99.90
27200;DHT22;14714;48.106;11.546;2024-02-23T14:21:04;6.10;99.90
27200;DHT22;14714;48.106;11.546;2024-02-23T14:23:31;6.00;99.90
27200;DHT22;14714;48.106;11.546;2024-02-23T14:25:58;6.10;99.90
27200;DHT22;14714;48.106;11.546;2024-02-23T14:28:25;6.10;99.90
27200;DHT22;14714;48.106;11.546;2024-02-23T14:30:52;6.00;99.90
27200;DHT22;14714;48.106;11.546;2024-02-23T14:33:20;5.90;99.90
27200;DHT22;14714;48.106;11.546;2024-02-23T14:35:47;5.90;99.90
27200;DHT22;14714;48.106;11.546;2024-02-23T14:38:16;5.70;99.90
27200;DHT22;14714;48.106;11.546;2024-02-23T14:40:43;5.70;99.90
27200;DHT22;14714;48.106;11.546;2024-02-23T14:43:11;5.60;99.90
27200;DHT22;14714;48.106;11.546;2024-02-23T14:45:37;5.60;99.90
27200;DHT22;14714;48.106;11.546;2024-02-23T14:48:05;5.60;99.90
27200;DHT22;14714;48.106;11.546;2024-02-23T14:50:32;5.60;99.90
27200;DHT22;14714;48.106;11.546;2024-02-23T14:52:59;5.50;99.90
27200;DHT22;14714;48.106;11.546;2024-02-23T14:55:26;5.50;99.90
27200;DHT22;14714;48.106;11.546;2024-02-23T14:57:54;5.50;99.90
27200;DHT22;14714;48.106;11.546;2024-02-23T15:00:20;5.50;99.90
27200;DHT22;14714;48.106;11.546;2024-02-23T15:02:47;5.60;99.90
27200;DHT22;14714;48.106;11.546;2024-02-23T15:05:14;5.60;99.90
27200;DHT22;14714;48.106;11.546;2024-02-23T15:07:42;5.60;99.90
27200;DHT22;14714;48.106;11.546;2024-02-23T15:10:09;5.50;99.90
27200;DHT22;14714;48.106;11.546;2024-02-23T15:12:36;5.50;99.90
27200;DHT22;14714;48.106;11.546;2024-02-23T15:15:03;5.50;99.90
27200;DHT22;14714;48.106;11.546;2024-02-23T15:17:31;5.50;99.90
27200;DHT22;14714;48.106;11.546;2024-02-23T15:19:58;5.40;99.90
27200;DHT22;14714;48.106;11.546;2024-02-23T15:22:25;5.40;99.90
27200;DHT22;14714;48.106;11.546;2024-02-23T15:24:52;5.40;99.90
27200;DHT22;14714;48.106;11.546;2024-02-23T15:27:19;5.40;99.90
27200;DHT22;14714;48.106;11.546;2024-02-23T15:29:46;5.40;99.90
27200;DHT22;14714;48.106;11.546;2024-02-23T15:32:17;5.40;99.90
27200;DHT22;14714;48.106;11.546;2024-02-23T15:34:44;5.40;99.90